Time;durP1;ratioP1;P1;durP2;ratioP2;P2;SDS_P1;SDS_P2;PMS_P1;PMS_P2;Temp;Humidity;BMP_temperature;BMP_pressure;BME280_temperature;BME280_humidity;BME280_pressure;Samples;Min_cycle;Max_cycle;Signal;HPM_P1;HPM_P2
2021/04/27 00:01:00;;;;;;;3.50;2.13;;;8.30;37.80;;;9.05;32.25;96998.91;4891719;29;20060;-45
2021/04/27 00:03:28;;;;;;;4.67;2.50;;;8.30;37.90;;;8.98;32.04;96997.94;4889933;29;20071;-46
2021/04/27 00:05:56;;;;;;;4.60;2.57;;;8.20;38.30;;;8.94;31.91;96996.59;4888489;29;20074;-47
2021/04/27 00:08:24;;;;;;;4.00;2.40;;;8.10;38.20;;;8.88;32.34;96990.13;4889580;29;20048;-45
2021/04/27 00:10:52;;;;;;;4.70;2.67;;;8.00;38.30;;;8.84;32.26;96992.28;4891059;29;20071;-46
2021/04/27 00:13:21;;;;;;;2.87;2.47;;;8.00;38.60;;;8.80;32.90;96990.09;4890455;29;20056;-46
2021/04/27 00:15:48;;;;;;;4.60;2.30;;;8.00;38.50;;;8.76;32.75;96992.28;4890830;29;20230;-45
2021/04/27 00:18:16;;;;;;;5.73;2.53;;;7.90;38.60;;;8.73;32.20;96982.00;4890420;29;20059;-47
2021/04/27 00:20:44;;;;;;;4.53;2.67;;;7.90;38.90;;;8.73;32.60;96982.00;4891433;29;20048;-46
2021/04/27 00:23:12;;;;;;;4.00;2.67;;;7.90;38.80;;;8.69;33.09;96982.50;4889923;29;20056;-45
2021/04/27 00:25:40;;;;;;;5.70;2.40;;;7.80;38.90;;;8.61;33.16;96970.88;4856325;29;20056;-46
2021/04/27 00:28:09;;;;;;;3.70;2.63;;;7.80;38.90;;;8.60;32.36;96973.69;4890196;29;20044;-46
2021/04/27 00:30:37;;;;;;;4.70;2.37;;;7.80;39.00;;;8.57;33.04;96976.66;4890484;29;20586;-62
2021/04/27 00:33:06;;;;;;;4.97;2.43;;;7.80;39.10;;;8.53;32.97;96972.69;4889443;29;20053;-61
2021/04/27 00:35:35;;;;;;;3.20;2.17;;;7.70;39.20;;;8.48;33.14;96960.75;4888906;29;20057;-61
2021/04/27 00:38:03;;;;;;;4.97;2.50;;;7.70;39.10;;;8.45;32.85;96963.75;4890619;29;20049;-61
2021/04/27 00:40:32;;;;;;;3.77;2.40;;;7.70;39.10;;;8.46;32.84;96961.91;4888827;29;20083;-61
2021/04/27 00:43:00;;;;;;;3.73;2.10;;;7.70;39.90;;;8.43;33.47;96957.78;4890763;29;20060;-61
2021/04/27 00:45:30;;;;;;;3.60;2.20;;;7.70;39.00;;;8.43;33.23;96956.94;4888813;29;20060;-61
2021/04/27 00:47:58;;;;;;;4.23;2.10;;;7.70;38.90;;;8.43;33.16;96952.47;4889464;29;20056;-61
2021/04/27 00:50:31;;;;;;;4.33;2.53;;;7.70;39.00;;;8.38;32.65;96948.63;4891041;29;20071;-62
2021/04/27 00:52:59;;;;;;;3.80;2.23;;;7.60;38.90;;;8.35;33.44;96951.59;4889821;29;20369;-61
2021/04/27 00:55:28;;;;;;;7.50;2.87;;;7.60;39.00;;;8.31;33.33;96939.66;4888523;29;20247;-62
2021/04/27 00:57:59;;;;;;;6.37;2.83;;;7.60;39.20;;;8.28;33.29;96936.34;4889371;29;20191;-61
2021/04/27 01:00:33;;;;;;;3.77;2.33;;;7.50;39.20;;;8.28;33.12;96946.13;4890862;29;20261;-62
2021/04/27 01:03:03;;;;;;;;;;;7.60;39.30;;;8.23;33.42;96941.28;4890567;29;20056;-61
2021/04/27 01:05:34;;;;;;;3.47;2.23;;;7.50;40.50;;;8.23;33.02;96945.78;4890037;29;19927;-61
2021/04/27 01:08:17;;;;;;;4.90;2.80;;;7.40;39.20;;;8.20;33.45;96941.63;4889262;29;20056;-61
2021/04/27 01:11:15;;;;;;;3.70;2.50;;;7.50;39.70;;;8.19;33.61;96937.31;4891151;29;20056;-62
2021/04/27 01:13:54;;;;;;;3.10;2.23;;;7.50;39.80;;;8.17;32.86;96936.66;4873639;29;20346;-62
2021/04/27 01:16:22;;;;;;;3.57;2.40;;;7.50;40.00;;;8.16;33.66;96940.31;4888796;29;20048;-62
2021/04/27 01:18:54;;;;;;;3.07;2.13;;;7.50;39.20;;;8.17;33.71;96935.81;4888610;29;20059;-61
2021/04/27 01:21:27;;;;;;;4.97;2.80;;;7.50;39.20;;;8.17;33.41;96934.00;4889578;29;20048;-61
2021/04/27 01:24:39;;;;;;;3.23;2.10;;;7.50;39.20;;;8.17;33.07;96930.53;4890932;29;20563;-62
2021/04/27 01:27:07;;;;;;;3.07;2.40;;;7.50;40.00;;;8.16;33.89;96928.84;4872722;29;20064;-61
2021/04/27 01:29:36;;;;;;;4.47;2.73;;;7.50;39.40;;;8.14;33.04;96929.00;4873212;29;20102;-62
2021/04/27 01:32:06;;;;;;;3.80;2.23;;;7.50;39.40;;;8.12;33.13;96922.22;4889966;29;20103;-61
2021/04/27 01:34:46;;;;;;;4.37;2.40;;;7.40;39.40;;;8.09;33.31;96921.56;4888798;29;20235;-61
2021/04/27 01:37:47;;;;;;;3.93;2.30;;;7.40;40.20;;;8.06;33.94;96924.56;4866391;29;20068;-61
2021/04/27 01:40:15;;;;;;;3.63;2.00;;;7.40;39.90;;;8.03;33.49;96919.56;4889294;29;20067;-62
2021/04/27 01:42:45;;;;;;;7.87;2.20;;;7.30;40.00;;;7.99;33.93;96920.88;4889184;29;20060;-61
2021/04/27 01:45:15;;;;;;;4.90;2.53;;;7.30;40.30;;;7.96;34.31;96929.16;4890036;29;20068;-61
2021/04/27 01:47:43;;;;;;;4.40;2.73;;;7.20;40.60;;;7.93;34.30;96921.53;4872020;29;20049;-61
2021/04/27 01:50:11;;;;;;;4.00;2.23;;;7.10;40.50;;;7.88;33.66;96908.75;4890395;29;20250;-61
2021/04/27 01:52:47;;;;;;;5.23;2.73;;;7.20;40.30;;;7.91;34.78;96914.72;4894342;29;20048;-61
2021/04/27 01:55:18;;;;;;;3.37;2.33;;;7.20;40.40;;;7.91;34.12;96917.38;4877964;29;20048;-61
2021/04/27 01:57:47;;;;;;;3.37;1.90;;;7.20;40.60;;;7.89;34.29;96912.25;4893730;29;20056;-62
2021/04/27 02:00:20;;;;;;;3.67;2.17;;;7.20;40.30;;;7.89;34.41;96909.59;4892772;29;20254;-61
2021/04/27 02:02:51;;;;;;;3.90;2.20;;;7.20;40.60;;;7.89;34.27;96909.59;4876001;29;20239;-62
2021/04/27 02:05:34;;;;;;;3.15;2.17;;;7.20;40.50;;;7.87;34.05;96906.25;4895268;29;20048;-62
2021/04/27 02:08:23;;;;;;;4.83;2.53;;;7.20;40.50;;;7.86;34.33;96897.50;4891765;29;20056;-62
2021/04/27 02:10:54;;;;;;;4.73;2.40;;;7.20;40.90;;;7.82;34.50;96895.34;4892546;29;20469;-62
2021/04/27 02:13:23;;;;;;;5.73;2.53;;;7.10;41.50;;;7.77;34.58;96906.41;4892180;29;20150;-62
2021/04/27 02:15:59;;;;;;;5.70;2.70;;;7.00;41.20;;;7.76;34.25;96902.09;4892629;29;20064;-62
2021/04/27 02:18:47;;;;;;;3.13;2.77;;;7.00;41.30;;;7.73;34.96;96899.78;4892552;29;20682;-61
2021/04/27 02:21:18;;;;;;;4.00;2.40;;;7.00;43.10;;;7.72;35.00;96897.31;4894323;29;20052;-62
2021/04/27 02:24:15;;;;;;;7.20;2.50;;;7.00;41.60;;;7.65;35.64;96897.94;4867875;29;20067;-61
2021/04/27 02:26:46;;;;;;;3.60;2.37;;;6.90;42.10;;;7.63;34.75;96899.09;4876478;29;20071;-61
2021/04/27 02:29:22;;;;;;;4.38;2.30;;;6.90;42.10;;;7.60;35.76;96899.41;4875523;29;20063;-61
2021/04/27 02:31:51;;;;;;;5.43;2.53;;;6.80;42.10;;;7.58;34.80;96890.78;4893490;29;20056;-61
2021/04/27 02:34:23;;;;;;;3.37;2.40;;;6.80;42.00;;;7.55;35.08;96897.25;4874685;29;20063;-61
2021/04/27 02:36:55;;;;;;;3.63;2.53;;;6.80;42.30;;;7.52;35.64;96897.53;4876306;29;20052;-62
2021/04/27 02:39:29;;;;;;;4.60;2.43;;;6.80;42.70;;;7.49;35.41;96896.06;4891854;29;20271;-62
2021/04/27 02:41:58;;;;;;;5.47;2.40;;;6.80;42.50;;;7.48;35.54;96888.25;4893164;29;20064;-62
2021/04/27 02:44:52;;;;;;;5.28;2.80;;;6.80;42.60;;;7.44;35.79;96885.13;4884714;29;20062;-61
2021/04/27 02:47:38;;;;;;;4.23;2.50;;;6.70;42.70;;;7.44;35.96;96882.47;4875764;29;20063;-61
2021/04/27 02:50:11;;;;;;;2.87;2.00;;;6.70;42.80;;;7.41;35.29;96876.69;4892048;29;20056;-61
2021/04/27 02:52:41;;;;;;;3.63;2.33;;;6.70;43.10;;;7.40;35.83;96875.81;4892803;29;20071;-61
2021/04/27 02:55:12;;;;;;;4.47;2.23;;;6.70;43.00;;;7.39;36.16;96871.53;4890665;29;20064;-62
2021/04/27 02:57:42;;;;;;;4.87;2.40;;;6.70;43.10;;;7.38;36.31;96872.50;4892997;29;20060;-62
2021/04/27 03:00:12;;;;;;;3.60;2.30;;;6.70;43.00;;;7.36;36.28;96869.19;4891865;29;20048;-61
2021/04/27 03:02:50;;;;;;;5.93;2.27;;;6.60;43.20;;;7.33;36.63;96868.69;4874264;29;20061;-62
2021/04/27 03:05:18;;;;;;;5.67;2.77;;;6.60;43.40;;;7.32;36.33;96878.44;4890724;29;20064;-61
2021/04/27 03:07:47;;;;;;;4.33;2.60;;;6.60;43.70;;;7.28;36.18;96871.81;4890980;29;20064;-62
2021/04/27 03:10:18;;;;;;;5.13;2.30;;;6.50;43.60;;;7.22;36.75;96875.09;4876506;29;20068;-61
2021/04/27 03:12:46;;;;;;;5.50;2.77;;;6.40;43.70;;;7.18;36.77;96871.94;4891282;29;20338;-61
2021/04/27 03:15:15;;;;;;;4.47;2.53;;;6.40;44.00;;;7.15;36.67;96871.41;4890661;29;20063;-62
2021/04/27 03:17:44;;;;;;;3.67;2.67;;;6.30;44.20;;;7.12;36.51;96866.47;4892176;29;20048;-61
2021/04/27 03:20:14;;;;;;;4.17;2.43;;;6.30;44.30;;;7.09;36.67;96864.94;4893424;29;20060;-62
2021/04/27 03:22:56;;;;;;;4.63;2.83;;;6.30;44.40;;;7.06;36.71;96871.38;4891368;29;20083;-61
2021/04/27 03:25:24;;;;;;;3.77;2.20;;;6.30;44.10;;;7.04;36.70;96872.53;4892288;29;20342;-61
2021/04/27 03:27:58;;;;;;;5.05;2.75;;;6.30;44.10;;;7.01;36.38;96871.03;4890010;29;20063;-61
2021/04/27 03:30:36;;;;;;;4.67;2.93;;;6.30;44.50;;;6.95;37.10;96862.91;4889793;29;20060;-61
2021/04/27 03:33:15;;;;;;;4.17;2.30;;;6.10;44.70;;;6.89;36.82;96872.28;4890589;29;20057;-61
2021/04/27 03:35:47;;;;;;;3.47;2.70;;;6.10;44.90;;;6.87;36.91;96874.28;4889041;29;20258;-62
2021/04/27 03:38:16;;;;;;;4.17;2.50;;;6.10;45.30;;;6.86;37.19;96862.88;4890354;29;20366;-61
2021/04/27 03:40:44;;;;;;;4.43;2.30;;;6.20;45.00;;;6.84;37.46;96861.34;4891077;29;20536;-61
2021/04/27 03:43:21;;;;;;;4.60;2.40;;;6.10;44.90;;;6.84;38.00;96863.97;4890777;29;20075;-61
2021/04/27 03:45:49;;;;;;;5.77;2.70;;;6.10;45.30;;;6.83;37.45;96859.69;4891633;29;20062;-61
2021/04/27 03:48:21;;;;;;;4.90;2.23;;;6.10;45.30;;;6.83;37.11;96865.81;4890711;29;20064;-62
2021/04/27 03:50:57;;;;;;;6.07;2.70;;;6.20;45.10;;;6.84;37.45;96863.97;4891299;29;20060;-61
2021/04/27 03:53:45;;;;;;;4.07;3.67;;;6.10;45.00;;;6.83;37.19;96867.63;4889827;29;20074;-61
2021/04/27 03:56:27;;;;;;;5.00;3.10;;;6.10;44.70;;;6.78;37.70;96865.44;4889864;29;20070;-62
2021/04/27 03:58:55;;;;;;;3.60;2.33;;;6.10;44.90;;;6.75;37.06;96864.94;4889151;29;20060;-62
2021/04/27 04:01:25;;;;;;;4.20;2.73;;;6.00;45.20;;;6.72;37.43;96863.41;4890457;29;20927;-62
2021/04/27 04:03:54;;;;;;;5.13;2.70;;;6.00;45.40;;;6.69;37.26;96869.03;4888835;29;20072;-61
2021/04/27 04:06:23;;;;;;;4.30;2.17;;;5.90;45.40;;;6.68;37.69;96870.84;4890117;29;20044;-61
2021/04/27 04:09:11;;;;;;;4.87;2.30;;;6.00;45.50;;;6.67;38.11;96866.53;4871243;29;20612;-61
2021/04/27 04:11:58;;;;;;;2.73;2.33;;;5.90;45.50;;;6.64;37.92;96877.44;4897061;29;20063;-61
2021/04/27 04:14:26;;;;;;;7.20;2.63;;;5.90;45.60;;;6.60;37.39;96877.91;4872207;29;20061;-62
2021/04/27 04:17:15;;;;;;;4.63;2.80;;;5.90;45.80;;;6.58;37.87;96870.13;4889163;29;20052;-62
2021/04/27 04:19:42;;;;;;;4.27;3.23;;;5.80;45.80;;;6.57;38.07;96867.63;4890359;29;20095;-62
2021/04/27 04:22:11;;;;;;;4.03;2.53;;;5.90;45.90;;;6.58;38.18;96871.94;4892110;29;20254;-61
2021/04/27 04:24:49;;;;;;;3.60;2.20;;;5.90;45.90;;;6.58;38.57;96874.59;4890926;29;20343;-62
2021/04/27 04:27:17;;;;;;;3.77;2.60;;;5.90;45.80;;;6.59;37.87;96873.59;4891821;29;20056;-62
2021/04/27 04:32:52;;;;;;;3.90;2.03;;;5.90;47.50;;;6.61;38.11;96871.63;4917911;29;20054;-62
2021/04/27 04:35:39;;;;;;;4.40;2.73;;;5.90;46.20;;;6.60;38.11;96869.97;4929809;29;20062;-62
2021/04/27 04:38:26;;;;;;;3.83;2.43;;;5.90;46.30;;;6.62;38.67;96874.09;4928765;29;20059;-61
2021/04/27 04:41:13;;;;;;;3.97;2.50;;;5.90;46.60;;;6.61;37.94;96866.31;4933994;29;20355;-62
2021/04/27 04:43:59;;;;;;;4.20;2.60;;;5.90;46.50;;;6.62;39.02;96863.53;4931891;29;20046;-61
2021/04/27 04:46:46;;;;;;;4.40;2.70;;;5.90;46.40;;;6.62;38.81;96871.47;4928874;29;20054;-61
2021/04/27 04:49:32;;;;;;;4.70;3.50;;;5.90;46.40;;;6.61;38.67;96875.09;4933185;29;20225;-62
2021/04/27 04:52:27;;;;;;;5.75;3.55;;;5.90;46.30;;;6.64;38.27;96877.44;4897728;29;20052;-61
2021/04/27 04:54:55;;;;;;;4.37;3.60;;;6.00;46.70;;;6.66;38.58;96874.63;4927074;29;20244;-61
2021/04/27 04:57:43;;;;;;;5.90;3.50;;;6.00;46.40;;;6.67;38.30;96879.78;4927180;29;20058;-61
2021/04/27 05:00:15;;;;;;;6.20;3.97;;;6.10;46.50;;;6.69;39.12;96874.34;4927182;29;20048;-61
2021/04/27 05:03:04;;;;;;;6.73;4.93;;;6.10;46.60;;;6.72;38.77;96879.28;4879209;29;20063;-61
2021/04/27 05:05:51;;;;;;;6.67;4.27;;;6.10;46.80;;;6.70;39.37;96876.78;4930867;29;20065;-61
2021/04/27 05:08:44;;;;;;;7.20;4.07;;;6.10;47.00;;;6.71;38.84;96880.28;4928373;29;20057;-61
2021/04/27 05:11:30;;;;;;;6.30;4.60;;;6.10;47.10;;;6.70;39.57;96876.78;4919728;29;20049;-61
2021/04/27 05:14:11;;;;;;;18.07;4.67;;;6.10;47.10;;;6.72;39.93;96879.28;4926762;29;20347;-61
2021/04/27 05:16:39;;;;;;;4.90;3.30;;;6.10;47.50;;;6.73;39.40;96885.41;4927762;29;20052;-59
2021/04/27 05:19:07;;;;;;;7.60;4.77;;;6.10;47.70;;;6.73;39.60;96885.41;4928545;29;20464;-59
2021/04/27 05:21:35;;;;;;;7.23;3.90;;;6.10;47.60;;;6.75;39.94;96881.63;4927763;29;20058;-59
2021/04/27 05:24:06;;;;;;;6.17;2.63;;;6.10;47.50;;;6.78;39.27;96875.19;4927017;29;20058;-59
2021/04/27 05:26:35;;;;;;;3.23;2.57;;;6.20;47.60;;;6.79;39.90;96882.97;4911784;29;20078;-58
2021/04/27 05:29:04;;;;;;;3.40;2.40;;;6.20;47.80;;;6.82;39.20;96874.72;4928445;29;20059;-57
2021/04/27 05:31:32;;;;;;;5.63;2.60;;;6.20;47.30;;;6.85;39.58;96882.34;4932630;29;20062;-58
2021/04/27 05:34:00;;;;;;;4.50;2.60;;;6.30;47.10;;;6.87;39.45;96887.50;4931510;29;20063;-59
2021/04/27 05:36:28;;;;;;;6.17;2.90;;;6.30;47.50;;;6.89;39.83;96882.88;4930714;29;20070;-59
2021/04/27 05:38:56;;;;;;;4.60;3.00;;;6.30;47.50;;;6.90;39.36;96880.09;4930037;29;20386;-58
2021/04/27 05:41:24;;;;;;;5.43;2.20;;;6.40;47.50;;;6.97;40.07;96879.44;4931330;29;20056;-58
2021/04/27 05:43:52;;;;;;;5.00;2.90;;;6.50;47.10;;;6.98;39.59;96883.72;4914130;29;20060;-59
2021/04/27 05:46:20;;;;;;;4.23;2.57;;;6.50;47.20;;;6.99;40.27;96880.94;4930227;29;20051;-61
2021/04/27 05:48:49;;;;;;;5.77;2.80;;;6.50;47.40;;;7.00;40.12;96871.19;4928745;29;20058;-57
2021/04/27 05:51:17;;;;;;;4.10;2.30;;;6.40;47.50;;;7.02;39.86;96871.88;4930826;29;20047;-57
2021/04/27 05:53:46;;;;;;;5.23;3.00;;;6.50;47.80;;;7.05;39.99;96876.84;4912351;29;20063;-60
2021/04/27 05:56:14;;;;;;;4.73;2.90;;;6.60;47.70;;;7.10;40.55;96874.56;4932068;29;20341;-54
2021/04/27 05:58:44;;;;;;;6.87;2.57;;;6.60;47.50;;;7.11;40.37;96868.25;4930329;29;20051;-60
2021/04/27 06:01:13;;;;;;;4.00;3.20;;;6.60;47.30;;;7.15;40.12;96876.72;4930625;29;20043;-59
2021/04/27 06:03:41;;;;;;;5.63;3.27;;;6.70;47.50;;;7.20;39.90;96877.91;4930566;29;20048;-52
2021/04/27 06:06:09;;;;;;;5.00;2.53;;;6.80;47.10;;;7.24;40.55;96876.59;4930896;29;20220;-58
2021/04/27 06:08:37;;;;;;;5.50;3.13;;;6.80;47.00;;;7.29;40.17;96882.25;4930596;29;20060;-57
2021/04/27 06:11:06;;;;;;;4.60;2.87;;;6.80;47.10;;;7.33;39.99;96873.97;4913434;29;20407;-54
2021/04/27 06:13:36;;;;;;;3.70;2.80;;;6.90;46.90;;;7.37;40.06;96878.00;4929993;29;20055;-59
2021/04/27 06:16:08;;;;;;;4.47;3.50;;;6.90;47.00;;;7.40;39.45;96880.31;4927987;29;20051;-57
2021/04/27 06:18:36;;;;;;;4.47;2.70;;;6.90;46.80;;;7.42;39.64;96878.31;4930400;29;20055;-52
2021/04/27 06:21:06;;;;;;;4.63;2.87;;;7.00;46.50;;;7.48;39.89;96880.31;4931628;29;20066;-57
2021/04/27 06:23:35;;;;;;;3.77;2.80;;;7.10;46.60;;;7.53;40.06;96882.50;4928985;29;20267;-58
2021/04/27 06:26:07;;;;;;;5.37;3.57;;;7.10;47.00;;;7.59;40.11;96881.84;4931920;29;20348;-56
2021/04/27 06:28:36;;;;;;;6.50;3.53;;;7.20;46.70;;;7.64;39.52;96876.91;4927488;29;20095;-57
2021/04/27 06:31:05;;;;;;;5.37;3.60;;;7.20;46.50;;;7.63;39.82;96880.53;4929891;29;20044;-56
2021/04/27 06:33:34;;;;;;;5.30;3.20;;;7.40;45.90;;;7.66;39.90;96873.09;4931006;29;20055;-57
2021/04/27 06:36:05;;;;;;;6.70;3.43;;;7.40;45.80;;;7.67;39.58;96877.41;4912465;29;20367;-53
2021/04/27 06:38:33;;;;;;;6.00;3.30;;;7.40;45.80;;;7.69;39.70;96882.53;4913976;29;20050;-58
2021/04/27 06:41:01;;;;;;;4.93;3.10;;;7.50;45.40;;;7.71;39.07;96879.75;4912116;29;20054;-58
2021/04/27 06:43:29;;;;;;;4.40;3.20;;;7.50;45.00;;;7.72;39.19;96873.47;4929987;29;20055;-53
2021/04/27 06:45:57;;;;;;;6.33;3.33;;;7.50;45.20;;;7.70;39.24;96878.91;4930018;29;20379;-57
2021/04/27 06:48:25;;;;;;;4.73;2.67;;;7.50;45.40;;;7.74;40.05;96871.47;4928761;29;20225;-55
2021/04/27 06:50:54;;;;;;;8.07;3.97;;;7.50;45.70;;;7.79;39.68;96870.00;4930870;29;20048;-57
2021/04/27 06:53:22;;;;;;;6.33;3.10;;;7.60;45.50;;;7.84;39.89;96870.31;4930827;29;20351;-60
2021/04/27 06:55:51;;;;;;;10.83;4.40;;;7.70;45.40;;;7.82;39.37;96876.78;4921116;29;20065;-59
2021/04/27 06:58:20;;;;;;;5.67;3.07;;;7.70;44.90;;;7.84;39.94;96870.31;4928538;29;20075;-59
2021/04/27 07:00:48;;;;;;;4.80;2.83;;;7.80;45.00;;;7.89;39.50;96868.03;4930253;29;20265;-57
2021/04/27 07:03:16;;;;;;;7.53;4.00;;;7.80;45.00;;;7.94;39.55;96870.16;4929598;29;20055;-59
2021/04/27 07:05:45;;;;;;;5.60;3.20;;;7.80;45.40;;;8.01;39.82;96871.19;4929913;29;20058;-60
2021/04/27 07:08:13;;;;;;;5.70;3.67;;;7.90;45.30;;;8.09;39.83;96871.19;4931756;29;20353;-56
2021/04/27 07:10:41;;;;;;;4.77;3.57;;;7.90;45.20;;;8.15;39.03;96868.88;4930579;29;20048;-56
2021/04/27 07:13:09;;;;;;;5.63;3.30;;;8.00;45.00;;;8.20;39.32;96866.53;4928814;29;20052;-56
2021/04/27 07:15:37;;;;;;;5.70;3.13;;;8.00;44.70;;;8.24;39.35;96865.25;4927684;29;20058;-55
2021/04/27 07:18:06;;;;;;;4.87;3.13;;;8.00;44.80;;;8.30;39.32;96864.56;4928649;29;20058;-56
2021/04/27 07:20:34;;;;;;;7.13;3.17;;;8.10;45.00;;;8.38;39.33;96864.56;4931404;29;20064;-55
2021/04/27 07:23:03;;;;;;;4.47;3.40;;;8.20;44.90;;;8.41;39.11;96858.97;4929374;29;20047;-54
2021/04/27 07:25:31;;;;;;;4.47;2.93;;;8.30;44.50;;;8.45;38.90;96859.44;4928985;29;20055;-55
2021/04/27 07:27:59;;;;;;;5.67;3.20;;;8.40;44.40;;;8.52;38.74;96863.09;4929421;29;20059;-56
2021/04/27 07:30:27;;;;;;;6.13;3.40;;;8.40;44.10;;;8.60;38.71;96860.44;4929587;29;20054;-56
2021/04/27 07:32:55;;;;;;;8.10;3.83;;;8.50;44.00;;;8.67;38.47;96852.63;4928983;29;20060;-54
2021/04/27 07:35:24;;;;;;;6.93;3.63;;;8.50;44.00;;;8.73;38.67;96861.75;4926840;29;20069;-55
2021/04/27 07:37:52;;;;;;;7.50;3.53;;;8.60;43.70;;;8.78;38.16;96870.03;4928814;29;20055;-55
2021/04/27 07:40:22;;;;;;;7.97;3.70;;;8.70;43.40;;;8.84;38.47;96870.19;4929409;29;20059;-55
2021/04/27 07:42:50;;;;;;;7.63;4.10;;;8.70;43.50;;;8.91;38.36;96870.31;4929712;29;20371;-55
2021/04/27 07:45:19;;;;;;;5.90;3.90;;;8.80;43.10;;;8.94;37.79;96869.19;4911205;29;20064;-55
2021/04/27 07:47:47;;;;;;;10.17;4.10;;;8.70;43.10;;;8.98;38.41;96865.19;4928091;29;20238;-56
2021/04/27 07:50:16;;;;;;;10.07;4.50;;;8.80;43.30;;;9.01;37.66;96865.66;4927046;29;20050;-56
2021/04/27 07:52:44;;;;;;;7.53;3.60;;;8.90;42.50;;;9.05;37.67;96869.66;4927113;29;20052;-53
2021/04/27 07:55:13;;;;;;;7.53;3.83;;;8.90;42.70;;;9.10;37.55;96860.34;4928467;29;20050;-53
2021/04/27 07:57:42;;;;;;;6.13;3.87;;;9.00;42.70;;;9.14;37.85;96861.66;4927688;29;20060;-56
2021/04/27 08:00:12;;;;;;;5.50;3.93;;;9.00;42.70;;;9.19;37.82;96864.59;4923319;29;20054;-55
2021/04/27 08:02:42;;;;;;;10.47;4.30;;;9.10;42.80;;;9.25;38.04;96863.94;4917551;29;20051;-54
2021/04/27 08:05:12;;;;;;;8.33;3.73;;;9.20;42.70;;;9.31;37.57;96865.06;4925618;29;20058;-56
2021/04/27 08:07:40;;;;;;;6.17;4.33;;;9.20;42.60;;;9.35;37.93;96863.72;4926582;29;20057;-54
2021/04/27 08:10:16;;;;;;;7.80;4.03;;;9.30;42.70;;;9.41;37.76;96869.16;5103886;27;20396;-53
2021/04/27 08:12:47;;;;;;;6.77;3.60;;;9.40;42.60;;;9.43;37.61;96872.47;5081325;28;20054;-56
2021/04/27 08:15:25;;;;;;;10.23;5.17;;;9.40;42.40;;;9.49;37.57;96875.44;5080616;28;20064;-56
2021/04/27 08:17:56;;;;;;;5.80;4.10;;;9.50;42.60;;;9.53;37.75;96868.78;5079959;28;20220;-56
2021/04/27 08:20:24;;;;;;;7.43;4.60;;;9.50;42.50;;;9.59;37.65;96870.75;5081234;28;20328;-54
2021/04/27 08:22:53;;;;;;;11.87;4.27;;;9.50;42.60;;;9.61;37.29;96868.75;5078978;28;20054;-56
2021/04/27 08:25:21;;;;;;;7.87;4.40;;;9.50;42.40;;;9.64;37.41;96873.72;5080973;28;20055;-53
2021/04/27 08:27:51;;;;;;;6.63;4.47;;;9.60;42.50;;;9.68;37.69;96871.53;5081335;28;20051;-54
2021/04/27 08:30:21;;;;;;;8.83;4.93;;;9.70;42.70;;;9.57;37.69;96867.44;5083188;28;20341;-55
2021/04/27 08:32:52;;;;;;;6.87;4.40;;;9.50;42.60;;;9.57;37.64;96862.13;5081649;28;20056;-57
2021/04/27 08:35:21;;;;;;;7.43;4.47;;;9.40;42.60;;;9.46;37.55;96856.19;5082162;28;20055;-55
2021/04/27 08:37:50;;;;;;;6.53;4.03;;;9.20;42.90;;;9.53;37.63;96856.31;5081125;28;20056;-54
2021/04/27 08:40:19;;;;;;;7.20;4.10;;;9.40;43.00;;;9.63;37.43;96851.63;5082599;28;20338;-54
2021/04/27 08:42:50;;;;;;;5.67;4.43;;;9.50;42.70;;;9.74;37.63;96850.41;5081014;28;20072;-53
2021/04/27 08:45:19;;;;;;;7.63;5.70;;;9.70;42.60;;;9.84;37.54;96855.50;5081199;28;20060;-56
2021/04/27 08:47:47;;;;;;;5.63;4.17;;;9.80;42.20;;;9.86;37.44;96846.31;5079971;28;20381;-56
2021/04/27 08:50:18;;;;;;;5.60;4.50;;;9.80;42.20;;;9.81;37.48;96859.34;5080305;28;20048;-55
2021/04/27 08:52:47;;;;;;;9.10;4.97;;;9.80;42.70;;;9.83;37.36;96846.69;5063882;28;20373;-56
2021/04/27 08:55:15;;;;;;;7.23;4.80;;;9.80;42.50;;;9.92;37.42;96849.28;5080659;28;20044;-57
2021/04/27 08:57:44;;;;;;;7.63;4.97;;;9.90;42.50;;;10.01;37.32;96845.59;5081382;28;20058;-54
2021/04/27 09:00:19;;;;;;;9.10;4.93;;;10.00;42.20;;;10.10;37.04;96855.16;5081059;28;20268;-56
2021/04/27 09:03:03;;;;;;;9.07;5.03;;;10.00;41.80;;;10.12;37.30;96845.16;5080823;28;20500;-56
2021/04/27 09:05:34;;;;;;;7.93;4.43;;;10.10;42.00;;;10.23;37.39;96847.38;5080492;28;20056;-56
2021/04/27 09:08:36;;;;;;;6.37;4.00;;;10.20;42.00;;;10.37;37.30;96845.00;5079671;28;20068;-55
2021/04/27 09:11:33;;;;;;;9.03;5.27;;;10.40;42.00;;;10.46;37.41;96843.09;5081474;28;20071;-56
2021/04/27 09:14:39;;;;;;;8.60;5.00;;;10.50;42.10;;;10.50;36.88;96839.06;5082044;28;20341;-56
2021/04/27 09:17:10;;;;;;;7.07;4.67;;;10.60;41.60;;;10.50;36.99;96844.38;5019070;28;20064;-56
2021/04/27 09:19:44;;;;;;;8.53;5.30;;;10.50;41.80;;;10.52;37.20;96837.06;5069665;28;20060;-56
2021/04/27 09:22:24;;;;;;;7.93;4.43;;;10.50;42.20;;;10.54;37.08;96833.19;5048738;28;20290;-54
2021/04/27 09:25:03;;;;;;;6.00;4.60;;;10.50;41.80;;;10.57;36.99;96837.34;5066841;28;20052;-54
2021/04/27 09:27:33;;;;;;;9.03;5.60;;;10.60;42.10;;;10.55;37.06;96831.38;5068365;28;20052;-56
2021/04/27 09:30:26;;;;;;;7.60;5.30;;;10.60;41.70;;;10.57;37.02;96837.34;5065281;28;20070;-56
2021/04/27 09:33:07;;;;;;;9.47;4.70;;;10.60;41.70;;;10.46;37.48;96830.63;5066378;28;20080;-56
2021/04/27 09:35:45;;;;;;;7.53;4.90;;;10.50;42.20;;;10.57;37.15;96829.38;5066092;28;20059;-54
2021/04/27 09:38:26;;;;;;;8.20;4.97;;;10.60;42.10;;;10.67;36.70;96829.09;5066850;28;20250;-53
2021/04/27 09:41:06;;;;;;;7.57;4.40;;;10.70;41.50;;;10.78;36.63;96818.00;5067011;28;20055;-56
2021/04/27 09:43:40;;;;;;;5.87;4.30;;;10.90;41.40;;;10.83;37.18;96821.75;5067717;28;20057;-56
2021/04/27 09:46:20;;;;;;;8.03;4.73;;;10.90;41.60;;;10.91;36.57;96817.34;5065824;28;20052;-55
2021/04/27 09:49:00;;;;;;;6.27;5.50;;;11.00;40.70;;;10.96;36.52;96809.66;5067544;28;20339;-52
2021/04/27 09:51:36;;;;;;;6.97;5.03;;;11.00;41.20;;;10.98;36.66;96811.13;5066388;28;20250;-52
2021/04/27 09:54:11;;;;;;;7.50;4.57;;;11.10;41.20;;;10.95;36.73;96803.50;5067219;28;20053;-56
2021/04/27 09:56:51;;;;;;;7.82;4.65;;;11.00;41.30;;;10.96;36.94;96799.00;5050354;28;20347;-56
2021/04/27 09:59:24;;;;;;;8.30;4.80;;;11.00;41.40;;;11.04;36.74;96801.56;5065365;28;20060;-55
2021/04/27 10:02:06;;;;;;;7.20;4.88;;;11.10;41.60;;;11.13;36.63;96804.97;5067612;28;20048;-52
2021/04/27 10:04:34;;;;;;;6.07;4.77;;;11.20;40.80;;;11.20;36.25;96805.84;5048557;28;20082;-55
2021/04/27 10:07:02;;;;;;;7.40;5.47;;;11.30;40.80;;;11.26;36.19;96804.28;5048334;28;20059;-55
2021/04/27 10:09:35;;;;;;;8.93;4.95;;;11.30;39.40;;;11.28;36.20;96802.28;5066459;28;20055;-52
2021/04/27 10:12:07;;;;;;;8.93;4.70;;;11.40;40.90;;;11.36;36.47;96803.00;5067568;28;20491;-52
2021/04/27 10:14:35;;;;;;;5.63;4.50;;;11.50;40.80;;;11.39;36.14;96801.78;5064103;28;20044;-54
2021/04/27 10:17:04;;;;;;;6.43;4.37;;;11.40;40.90;;;11.43;36.45;96792.41;5065835;28;20239;-52
2021/04/27 10:19:34;;;;;;;7.25;5.28;;;11.50;40.90;;;11.54;36.40;96796.44;5066055;28;20048;-55
2021/04/27 10:22:02;;;;;;;6.00;4.10;;;11.60;40.70;;;11.63;36.39;96790.81;5066551;28;20059;-55
2021/04/27 10:24:32;;;;;;;7.70;5.60;;;11.70;40.50;;;11.70;35.87;96792.72;5067125;28;20087;-54
2021/04/27 10:27:00;;;;;;;9.55;5.15;;;11.80;40.30;;;11.77;36.06;96788.28;5066246;28;20358;-55
2021/04/27 10:29:28;;;;;;;6.53;5.13;;;11.90;40.10;;;11.85;35.95;96785.47;5031639;28;20063;-54
2021/04/27 10:32:17;;;;;;;8.63;6.38;;;12.00;39.80;;;11.86;34.73;96778.31;5063891;28;20200;-54
2021/04/27 10:34:57;;;;;;;7.65;5.50;;;12.00;38.30;;;11.90;34.73;96776.94;5065648;28;20246;-55
2021/04/27 10:38:00;;;;;;;9.68;5.53;;;12.00;38.80;;;11.97;35.43;96770.66;5065463;28;20057;-54
2021/04/27 10:41:02;;;;;;;14.65;5.47;;;12.20;39.40;;;12.02;34.39;96762.09;5062372;28;20067;-53
2021/04/27 10:43:33;;;;;;;9.18;5.90;;;12.30;38.50;;;12.01;34.49;96752.41;5066444;28;20060;-56
2021/04/27 10:46:10;;;;;;;9.30;4.95;;;12.10;38.70;;;12.06;35.21;96751.84;5047814;28;20063;-56
2021/04/27 10:48:40;;;;;;;7.63;5.85;;;12.20;38.70;;;12.13;35.18;96748.19;5065419;28;20064;-60
2021/04/27 10:51:24;;;;;;;13.50;6.63;;;12.40;39.20;;;12.28;34.60;96757.97;5066050;28;20057;-55
2021/04/27 10:54:21;;;;;;;9.93;5.60;;;12.50;38.50;;;12.38;34.46;96745.13;5065239;28;20049;-57
2021/04/27 10:57:04;;;;;;;8.27;4.95;;;12.60;38.50;;;12.41;34.42;96742.88;5064908;28;20618;-51
2021/04/27 11:00:00;;;;;;;9.73;5.72;;;12.60;38.60;;;12.42;34.92;96743.69;5064080;28;20067;-55